Latest Weather Observations for Hunters Hill

IDV60801

Issued at 5:31 pm EST Tuesday 26 May 2015 (issued every 30 minutes, with the page automatically refreshed every 10 minutes)

About weather observations | Map of weather stations | Latest weather observations for VIC | Other Formats
Station Details ID: 082139 Name: HUNTERS HILL Lat: -36.21 Lon: 147.54 Height: 981.0 m
Data from the previous 72 hours. | See also: Recent months at Hunters Hill
Date/Time
EST
Temp
°C
App
Temp
°C
Dew
Point
Rel
Hum
%
Delta-T
°C
Wind Press
QNH
hPa
Press
MSL
hPa
Rain
since 9 am
mm
Dir
 
Spd
km/h
Gust
km/h
Spd
kts
Gust
kts
26/05:30pm 6.4 5.2 4.7 89 0.8 CALM 0 2 0 1 - - 0.0
26/05:00pm 6.7 5.5 4.4 85 1.1 CALM 0 2 0 1 - - 0.0
26/04:30pm 7.1 5.9 4.8 85 1.1 CALM 0 0 0 0 - - 0.0
26/04:00pm 7.3 5.4 5.0 85 1.1 S 4 6 2 3 - - 0.0
26/03:30pm 7.5 5.4 4.1 79 1.6 S 4 6 2 3 - - 0.0
26/03:00pm 8.0 6.1 4.8 80 1.5 S 4 9 2 5 - - 0.0
26/02:30pm 8.8 6.8 4.4 74 2.1 S 4 7 2 4 - - 0.0
26/02:00pm 8.7 6.3 4.3 74 2.1 S 6 11 3 6 - - 0.0
26/01:30pm 9.5 7.2 4.7 72 2.3 S 6 9 3 5 - - 0.0
26/01:00pm 9.5 7.1 4.1 69 2.5 S 6 9 3 5 - - 0.0
26/12:30pm 9.2 7.4 3.2 66 2.7 S 2 6 1 3 - - 0.0
26/12:00pm 10.3 8.0 2.7 59 3.5 S 4 7 2 4 - - 0.0
26/11:30am 10.1 8.0 3.8 65 2.9 S 4 9 2 5 - - 0.0
26/11:00am 8.8 6.1 2.8 66 2.7 S 6 9 3 5 - - 0.0
26/10:30am 8.4 5.7 2.4 66 2.7 S 6 7 3 4 - - 0.0
26/10:00am 8.5 6.6 2.7 67 2.6 S 2 6 1 3 - - 0.0
26/09:30am 7.6 5.4 3.3 74 1.9 S 4 9 2 5 - - 0.0
26/09:00am 6.4 3.8 3.4 81 1.3 S 6 9 3 5 - - 0.0
26/08:30am 5.3 2.7 3.3 87 0.9 S 6 9 3 5 - - 0.0
26/08:00am 5.4 3.8 2.2 80 1.4 CALM 0 2 0 1 - - 0.0
26/07:30am 4.9 3.3 2.3 83 1.1 CALM 0 2 0 1 - - 0.0
26/07:00am 5.1 3.1 2.5 83 1.1 S 2 4 1 2 - - 0.0
26/06:30am 5.3 3.3 2.5 82 1.2 S 2 4 1 2 - - 0.0
26/06:00am 5.5 3.8 2.0 78 1.5 CALM 0 2 0 1 - - 0.0
26/05:30am 5.1 2.9 0.9 74 1.7 S 2 4 1 2 - - 0.0
26/05:00am 5.0 2.8 0.9 75 1.7 S 2 4 1 2 - - 0.0
26/04:30am 5.3 3.1 0.9 73 1.8 S 2 4 1 2 - - 0.0
26/04:00am 5.7 3.7 -0.4 65 2.5 CALM 0 0 0 0 - - 0.0
26/03:30am 5.6 3.6 -0.2 66 2.4 CALM 0 0 0 0 - - 0.0
26/03:00am 5.6 3.5 -0.7 64 2.5 CALM 0 2 0 1 - - 0.0
26/02:30am 5.9 3.4 -1.0 61 2.8 S 2 4 1 2 - - 0.0
26/02:00am 6.1 3.5 -2.0 56 3.2 S 2 4 1 2 - - 0.0
26/01:30am 6.3 3.6 -2.6 53 3.4 S 2 6 1 3 - - 0.0
26/01:00am 6.8 4.2 -5.2 42 4.4 CALM 0 0 0 0 - - 0.0
26/12:30am 6.6 4.2 -3.1 50 3.7 CALM 0 0 0 0 - - 0.0
26/12:00am 6.2 4.0 -1.9 56 3.2 CALM 0 2 0 1 - - 0.0
 
Date/Time
EST
Temp
°C
App
Temp
°C
Dew
Point
Rel
Hum
%
Delta-T
°C
Wind Press
QNH
hPa
Press
MSL
hPa
Rain
since 9 am
mm
Dir
 
Spd
km/h
Gust
km/h
Spd
kts
Gust
kts
25/11:30pm 6.5 4.2 -2.1 54 3.4 CALM 0 0 0 0 - - 0.0
25/11:00pm 6.6 4.4 -1.5 56 3.2 CALM 0 0 0 0 - - 0.0
25/10:30pm 7.0 4.7 -2.4 51 3.7 CALM 0 0 0 0 - - 0.0
25/10:00pm 7.0 4.8 -1.9 53 3.5 CALM 0 0 0 0 - - 0.0
25/09:30pm 6.7 4.2 1.8 71 2.1 S 4 4 2 2 - - 0.0
25/09:00pm 6.7 4.8 3.0 77 1.6 S 2 4 1 2 - - 0.0
25/08:30pm 6.4 4.9 3.0 79 1.5 CALM 0 0 0 0 - - 0.0
25/08:00pm 6.9 5.1 3.2 77 1.7 S 2 4 1 2 - - 0.0
25/07:30pm 7.1 4.7 2.4 72 2.1 S 4 7 2 4 - - 0.0
25/07:00pm 6.7 4.9 1.0 67 2.4 CALM 0 2 0 1 - - 0.0
25/06:30pm 6.3 4.4 2.6 77 1.6 S 2 2 1 1 - - 0.0
25/06:00pm 6.1 3.9 3.4 83 1.2 S 4 6 2 3 - - 0.0
25/05:30pm 6.5 5.2 4.2 85 1.1 CALM 0 0 0 0 - - 0.0
25/05:00pm 6.7 5.2 3.1 78 1.6 CALM 0 0 0 0 - - 0.0
25/04:30pm 7.6 5.8 3.5 75 1.9 S 2 4 1 2 - - 0.0
25/04:00pm 7.9 6.1 3.4 73 2.0 S 2 4 1 2 - - 0.0
25/03:30pm 8.8 7.5 4.0 72 2.2 CALM 0 0 0 0 - - 0.0
25/03:00pm 8.8 6.7 1.5 60 3.2 S 2 6 1 3 - - 0.0
25/02:30pm 8.4 6.2 3.1 69 2.4 S 4 6 2 3 - - 0.0
25/02:00pm 8.3 6.0 2.8 68 2.5 S 4 6 2 3 - - 0.0
25/01:30pm 9.2 6.8 1.9 60 3.2 S 4 9 2 5 - - 0.0
25/01:00pm 9.4 6.8 0.8 55 3.7 S 4 7 2 4 - - 0.0
25/12:30pm 9.3 6.3 0.5 54 3.8 S 6 11 3 6 - - 0.0
25/12:00pm 9.1 6.3 2.0 61 3.2 S 6 11 3 6 - - 0.0
25/11:30am 8.7 5.7 1.1 59 3.3 S 6 9 3 5 - - 0.0
25/11:00am 9.6 6.8 -0.3 50 4.2 S 4 7 2 4 - - 0.0
25/10:30am 9.0 6.1 -1.4 48 4.3 S 4 6 2 3 - - 0.0
25/10:00am 8.1 5.6 -3.7 43 4.5 CALM 0 2 0 1 - - 0.0
25/09:30am 7.8 5.0 -0.4 56 3.4 S 4 9 2 5 - - 0.0
25/09:00am 7.5 4.2 -1.2 54 3.5 S 6 9 3 5 - - 0.0
25/08:30am 7.1 4.5 -1.8 53 3.5 S 2 4 1 2 - - 0.0
25/08:00am 5.8 3.7 -1.1 61 2.8 CALM 0 2 0 1 - - 0.0
25/07:30am 6.1 3.5 -1.5 58 3.0 S 2 4 1 2 - - 0.0
25/07:00am 5.6 3.1 -1.3 61 2.7 S 2 2 1 1 - - 0.0
25/06:30am 5.8 3.2 -1.6 59 2.9 S 2 4 1 2 - - 0.0
25/06:00am 5.4 2.4 -1.5 61 2.7 S 4 6 2 3 - - 0.0
25/05:30am 5.4 2.8 -1.5 61 2.7 S 2 6 1 3 - - 0.0
25/05:00am 5.2 2.2 -1.5 62 2.6 S 4 6 2 3 - - 0.0
25/04:30am 5.3 1.9 -1.8 60 2.8 S 6 7 3 4 - - 0.0
25/04:00am 5.0 2.1 -1.4 63 2.5 S 4 4 2 2 - - 0.0
25/03:30am 5.8 3.1 -2.8 54 3.3 S 2 4 1 2 - - 0.0
25/03:00am 5.9 3.6 -2.0 57 3.1 CALM 0 2 0 1 - - 0.0
25/02:30am 6.3 3.6 -2.1 55 3.3 S 2 4 1 2 - - 0.0
25/02:00am 6.4 3.7 -2.7 52 3.5 S 2 4 1 2 - - 0.0
25/01:30am 6.8 4.0 -2.9 50 3.7 S 2 4 1 2 - - 0.0
25/01:00am 7.1 4.1 -1.8 53 3.5 S 4 7 2 4 - - 0.0
25/12:30am 7.1 4.0 -2.9 49 3.9 S 4 6 2 3 - - 0.0
25/12:00am 6.8 3.5 -4.0 46 4.1 S 4 6 2 3 - - 0.0
 
Date/Time
EST
Temp
°C
App
Temp
°C
Dew
Point
Rel
Hum
%
Delta-T
°C
Wind Press
QNH
hPa
Press
MSL
hPa
Rain
since 9 am
mm
Dir
 
Spd
km/h
Gust
km/h
Spd
kts
Gust
kts
24/11:30pm 6.5 3.5 -1.6 56 3.2 S 4 6 2 3 - - 0.0
24/11:00pm 7.1 3.7 -5.6 40 4.6 S 4 6 2 3 - - 0.0
24/10:30pm 7.5 4.8 -2.2 50 3.8 S 2 4 1 2 - - 0.0
24/10:00pm 7.5 4.5 -2.0 51 3.8 S 4 4 2 2 - - 0.0
24/09:30pm 8.3 5.3 -8.7 29 5.8 CALM 0 0 0 0 - - 0.0
24/09:00pm 8.3 5.5 -6.6 34 5.4 CALM 0 0 0 0 - - 0.0
24/08:30pm 8.5 5.2 -13.1 20 6.7 CALM 0 2 0 1 - - 0.0
24/08:00pm 8.7 5.0 -15.0 17 7.0 S 2 4 1 2 - - 0.0
24/07:30pm 9.5 6.5 -9.0 26 6.4 CALM 0 0 0 0 - - 0.0
24/07:00pm 9.1 5.7 -9.9 25 6.4 S 2 2 1 1 - - 0.0
24/06:30pm 8.9 5.9 -9.1 27 6.1 CALM 0 0 0 0 - - 0.0
24/06:00pm 8.3 6.1 -1.8 49 4.1 CALM 0 0 0 0 - - 0.0
24/05:30pm 7.6 5.3 -2.7 48 4.0 CALM 0 0 0 0 - - 0.0
24/05:00pm 8.0 6.6 3.8 75 1.9 CALM 0 0 0 0 - - 0.0
24/04:30pm 8.4 7.2 4.6 77 1.8 CALM 0 0 0 0 - - 0.0
24/04:00pm 9.5 8.5 5.5 76 1.9 CALM 0 0 0 0 - - 0.0
24/03:30pm 9.9 8.8 4.9 71 2.4 CALM 0 4 0 2 - - 0.0
24/03:00pm 10.8 9.2 4.7 66 2.9 S 2 6 1 3 - - 0.0
24/02:30pm 11.2 9.7 4.9 65 3.0 S 2 6 1 3 - - 0.0
24/02:00pm 12.3 10.8 4.8 60 3.6 S 2 6 1 3 - - 0.0
24/01:30pm 12.8 11.2 4.3 56 4.1 S 2 6 1 3 - - 0.0
24/01:00pm 12.5 11.0 3.2 53 4.4 CALM 0 4 0 2 - - 0.0
24/12:30pm 13.8 11.7 -0.6 37 6.3 CALM 0 4 0 2 - - 0.0
24/12:00pm 11.9 9.3 -1.9 38 5.8 S 2 4 1 2 - - 0.0
24/11:30am 11.9 9.0 -1.3 40 5.6 S 4 9 2 5 - - 0.0
24/11:00am 11.4 7.9 -6.0 29 6.6 S 4 7 2 4 - - 0.0
24/10:30am 11.4 7.4 -7.4 26 6.9 S 6 11 3 6 - - 0.0
24/10:00am 10.8 6.6 -10.0 22 7.1 S 6 9 3 5 - - 0.0
24/09:30am 10.6 5.9 -18.6 11 8.2 S 6 9 3 5 - - 0.0
24/09:00am 10.5 6.9 -12.8 18 7.4 S 2 4 1 2 - - 0.2
24/08:30am 10.2 6.5 -25.7 6 8.6 CALM 0 2 0 1 - - 0.2
24/08:00am 10.0 5.9 -25.9 6 8.5 S 2 4 1 2 - - 0.2
24/07:30am 10.1 6.3 -27.8 5 8.7 CALM 0 0 0 0 - - 0.2
24/07:00am 9.6 - - - - S 2 2 1 1 - - 0.2
24/06:30am 9.6 - - - - S 2 2 1 1 - - 0.2
24/06:00am 9.2 - - - - S 4 6 2 3 - - 0.2
24/05:30am 8.8 4.6 -28.8 5 8.2 S 2 4 1 2 - - 0.2
24/05:00am 8.9 4.7 -28.7 5 8.2 S 2 2 1 1 - - 0.2
24/04:30am 9.2 4.3 -28.4 5 8.3 S 6 7 3 4 - - 0.2
24/04:00am 9.0 4.4 -28.6 5 8.3 S 4 6 2 3 - - 0.2
24/03:30am 9.1 4.6 -26.6 6 8.2 S 4 6 2 3 - - 0.2
24/03:00am 8.8 4.3 -25.1 7 8.0 S 4 7 2 4 - - 0.2
24/02:30am 8.7 3.9 -22.4 9 7.8 S 6 9 3 5 - - 0.2
24/02:00am 8.5 3.8 -19.2 12 7.4 S 6 11 3 6 - - 0.2
24/01:30am 8.6 3.9 -20.2 11 7.5 S 6 11 3 6 - - 0.2
24/01:00am 8.5 3.8 -18.3 13 7.3 S 6 9 3 5 - - 0.2
24/12:30am 8.2 3.5 -18.5 13 7.2 SSW 6 7 3 4 - - 0.2
24/12:00am 7.7 3.1 -17.3 15 6.9 S 6 9 3 5 - - 0.2
 
Date/Time
EST
Temp
°C
App
Temp
°C
Dew
Point
Rel
Hum
%
Delta-T
°C
Wind Press
QNH
hPa
Press
MSL
hPa
Rain
since 9 am
mm
Dir
 
Spd
km/h
Gust
km/h
Spd
kts
Gust
kts
23/11:30pm 7.6 3.5 -13.9 20 6.4 SSE 4 7 2 4 - - 0.2
23/11:00pm 7.8 3.5 -11.5 24 6.1 SSE 6 11 3 6 - - 0.2
23/10:30pm 8.2 3.7 -11.7 23 6.3 SSE 7 17 4 9 - - 0.2
23/10:00pm 8.6 3.8 -10.8 24 6.3 SE 9 17 5 9 - - 0.2
23/09:30pm 8.1 3.9 -7.6 32 5.5 SE 7 11 4 6 - - 0.2
23/09:00pm 8.5 4.3 -7.2 32 5.6 SE 7 11 4 6 - - 0.2
23/08:30pm 8.3 4.2 -6.6 34 5.4 SE 7 15 4 8 - - 0.2
23/08:00pm 8.2 4.6 -3.9 42 4.6 SE 6 11 3 6 - - 0.2
23/07:30pm 8.7 5.1 -3.8 41 4.8 SE 6 9 3 5 - - 0.2
23/07:00pm 8.7 5.1 -3.5 42 4.7 SE 6 9 3 5 - - 0.2
23/06:30pm 7.9 5.0 -0.8 54 3.6 SE 4 7 2 4 - - 0.2
23/06:00pm 8.0 5.2 2.3 67 2.5 SE 6 7 3 4 - - 0.2

Other Formats:

Comma delimited format used in spreadsheet applications
http://www.bom.gov.au/fwo/IDV60801/IDV60801.94878.axf

JavaScript Object Notation format (JSON) in row-major order
http://www.bom.gov.au/fwo/IDV60801/IDV60801.94878.json